Terminal Aerodrome Forecast
Issued by NWS

Home | Current Version | Previous Version | Text Only | Print | Product List | Glossary On
Versions: 1 2 3 4 5 6 7 8 9 10 11 12 13 14 15 16 17 18 19 20 21 22 23 24 25 26 27 28 29 30 31 32 33 34 35 36 37 38 39 40 41 42 43 44 45 46 47 48 49 50
000
FTAK31 PANC 192320
TAFADU
TAF
PADU 192320Z 2000/2024 01007KT 6SM -SN BKN030
      TEMPO 2000/2004 01010G20KT BKN035
     FM200700 09008KT P6SM SCT030 BKN050
     FM201600 12012G20KT P6SM BKN050
     FM202000 12020G30KT 5SM -SN BKN025=

USA.gov is the U.S. government's official web portal to all federal, state and local government web resources and services.